Pleasant Lake, MI (49272)

6:27 PM EST on February 10, 2016 (GMT -0500)
Pleasant Lake | | Change Station
CLOSE
Current Station
Personal Weather Station
Location: Pleasant Lake, MI
Elevation: 971 ft
Nearby Weather Stations

Elev 971 ft 42.39 °N, 84.34 °W | Updated 1 second ago

Overcast
Overcast
15.8 °F
Feels Like 16 °F
N
0.0
Wind Variable Wind from North
Gusts 0.0 mph

Today
High -- | Low -- °F
--% Chance of Precip.
Yesterday
High -- | Low -- °F
Precip. -- in
Pressure 29.92 in
Visibility 2.0 miles
Clouds Few 3300 ft
Overcast 6000 ft
Windchill 16 °F
Dew Point 10 °F
Humidity 76%
Rainfall 0.00 in
Snow Depth Not available.
7:41 AM 6:02 PM
Waxing Crescent, 8% visible
SPECI KJXN 102318Z 30013G19KT 2SM -SN FEW033 OVC060 M09/M14 A2992 RMK AO2 SNB12 P0000 T10891144
Pressure 29.92 in
Visibility 2.0 miles
Clouds Few 3300 ft
Overcast 6000 ft
Windchill 16 °F
Dew Point 10 °F
Humidity 76%
Rainfall 0.00 in
Snow Depth Not available.
7:41 AM 6:02 PM
Waxing Crescent, 8% visible
SPECI KJXN 102318Z 30013G19KT 2SM -SN FEW033 OVC060 M09/M14 A2992 RMK AO2 SNB12 P0000 T10891144

10-Day Weather Forecast

Almanac

Astronomy

Feb. 10, 2016 Rise Set
Actual Time
Civil Twilight
Nautical Twilight
Astronomical Twilight
Moon
Length of Visible Light
Length of Day
Tomorrow will be .
, % of the Moon is Illuminated

Today's Extremes

State Highs State Lows

Community

WunderPhotos

Upload Photos

1,891,935 photos uploaded!

WunderBlog® & News

Nearby

Air Quality

  Air Quality AQ Index Pollutant
Not available.

Snow Depth

Station Depth Elevation

Earthquake Activity

City Distance Mag. Time & Date
Minimum magnitude displayed is 2.5.

Coastal Water Temperatures

Place Temperature

Stations

Nearby Weather Stations

Station Location Temp. Windchill Dew Point Humidity Wind Precip. Elev Updated Type
                   

Watches & Warnings

There are currently no watches in effect.